sensor_id;sensor_type;location;lat;lon;timestamp;P1;durP1;ratioP1;P2;durP2;ratioP2
71622;SDS011;59473;53.214;5.728;2022-11-18T00:01:25;15.73;;;9.03;;
71622;SDS011;59473;53.214;5.728;2022-11-18T00:03:51;17.80;;;8.53;;
71622;SDS011;59473;53.214;5.728;2022-11-18T00:06:17;18.50;;;9.00;;
71622;SDS011;59473;53.214;5.728;2022-11-18T00:08:43;17.60;;;9.27;;
71622;SDS011;59473;53.214;5.728;2022-11-18T00:11:09;17.60;;;9.33;;
71622;SDS011;59473;53.214;5.728;2022-11-18T00:13:39;19.87;;;9.53;;
71622;SDS011;59473;53.214;5.728;2022-11-18T00:16:23;21.20;;;9.32;;
71622;SDS011;59473;53.214;5.728;2022-11-18T00:18:48;20.93;;;9.37;;
71622;SDS011;59473;53.214;5.728;2022-11-18T00:21:14;18.47;;;9.80;;
71622;SDS011;59473;53.214;5.728;2022-11-18T00:23:39;15.25;;;9.40;;
71622;SDS011;59473;53.214;5.728;2022-11-18T00:26:05;15.53;;;8.13;;
71622;SDS011;59473;53.214;5.728;2022-11-18T00:28:31;15.85;;;9.20;;
71622;SDS011;59473;53.214;5.728;2022-11-18T00:31:00;16.63;;;10.10;;
71622;SDS011;59473;53.214;5.728;2022-11-18T00:33:26;16.08;;;9.40;;
71622;SDS011;59473;53.214;5.728;2022-11-18T00:35:52;16.83;;;8.70;;
71622;SDS011;59473;53.214;5.728;2022-11-18T00:38:17;14.38;;;8.65;;
71622;SDS011;59473;53.214;5.728;2022-11-18T00:40:42;17.77;;;10.40;;
71622;SDS011;59473;53.214;5.728;2022-11-18T00:43:08;16.77;;;9.90;;
71622;SDS011;59473;53.214;5.728;2022-11-18T00:45:33;17.23;;;9.77;;
71622;SDS011;59473;53.214;5.728;2022-11-18T00:47:58;18.30;;;10.53;;
71622;SDS011;59473;53.214;5.728;2022-11-18T00:50:24;16.00;;;9.97;;
71622;SDS011;59473;53.214;5.728;2022-11-18T00:52:49;19.52;;;10.88;;
71622;SDS011;59473;53.214;5.728;2022-11-18T00:55:15;17.23;;;10.33;;
71622;SDS011;59473;53.214;5.728;2022-11-18T00:57:40;18.77;;;10.83;;
71622;SDS011;59473;53.214;5.728;2022-11-18T01:00:05;21.53;;;12.23;;
71622;SDS011;59473;53.214;5.728;2022-11-18T01:02:31;18.58;;;10.65;;
71622;SDS011;59473;53.214;5.728;2022-11-18T01:04:57;21.50;;;11.43;;
71622;SDS011;59473;53.214;5.728;2022-11-18T01:07:22;17.37;;;11.20;;
71622;SDS011;59473;53.214;5.728;2022-11-18T01:09:47;20.10;;;11.50;;
71622;SDS011;59473;53.214;5.728;2022-11-18T01:12:12;21.33;;;12.77;;
71622;SDS011;59473;53.214;5.728;2022-11-18T01:14:57;26.10;;;12.00;;
71622;SDS011;59473;53.214;5.728;2022-11-18T01:17:22;21.73;;;12.23;;
71622;SDS011;59473;53.214;5.728;2022-11-18T01:19:47;23.90;;;13.23;;
71622;SDS011;59473;53.214;5.728;2022-11-18T01:22:13;19.33;;;11.87;;
71622;SDS011;59473;53.214;5.728;2022-11-18T01:24:38;22.90;;;13.40;;
71622;SDS011;59473;53.214;5.728;2022-11-18T01:27:03;20.73;;;12.67;;
71622;SDS011;59473;53.214;5.728;2022-11-18T01:29:28;24.37;;;13.20;;
71622;SDS011;59473;53.214;5.728;2022-11-18T01:31:53;19.00;;;12.40;;
71622;SDS011;59473;53.214;5.728;2022-11-18T01:34:19;24.10;;;14.50;;
71622;SDS011;59473;53.214;5.728;2022-11-18T01:36:44;22.50;;;14.17;;
71622;SDS011;59473;53.214;5.728;2022-11-18T01:39:09;23.90;;;14.27;;
71622;SDS011;59473;53.214;5.728;2022-11-18T01:41:35;24.95;;;14.85;;
71622;SDS011;59473;53.214;5.728;2022-11-18T01:44:02;22.90;;;14.23;;
71622;SDS011;59473;53.214;5.728;2022-11-18T01:46:36;28.25;;;14.98;;
71622;SDS011;59473;53.214;5.728;2022-11-18T01:49:03;25.08;;;15.25;;
71622;SDS011;59473;53.214;5.728;2022-11-18T01:51:31;30.63;;;17.15;;
71622;SDS011;59473;53.214;5.728;2022-11-18T01:53:58;31.73;;;15.10;;
71622;SDS011;59473;53.214;5.728;2022-11-18T01:56:28;23.58;;;13.20;;
71622;SDS011;59473;53.214;5.728;2022-11-18T01:59:07;33.40;;;17.67;;
71622;SDS011;59473;53.214;5.728;2022-11-18T02:01:34;31.63;;;16.30;;
71622;SDS011;59473;53.214;5.728;2022-11-18T02:03:59;26.30;;;15.50;;
71622;SDS011;59473;53.214;5.728;2022-11-18T02:06:24;31.73;;;16.73;;
71622;SDS011;59473;53.214;5.728;2022-11-18T02:08:50;35.47;;;16.63;;
71622;SDS011;59473;53.214;5.728;2022-11-18T02:11:15;28.43;;;14.30;;
71622;SDS011;59473;53.214;5.728;2022-11-18T02:14:00;35.10;;;17.13;;
71622;SDS011;59473;53.214;5.728;2022-11-18T02:16:30;35.00;;;18.25;;
71622;SDS011;59473;53.214;5.728;2022-11-18T02:19:03;34.35;;;16.83;;
71622;SDS011;59473;53.214;5.728;2022-11-18T02:29:20;37.53;;;17.85;;
71622;SDS011;59473;53.214;5.728;2022-11-18T02:31:56;33.30;;;16.30;;
71622;SDS011;59473;53.214;5.728;2022-11-18T02:37:05;35.10;;;16.87;;
71622;SDS011;59473;53.214;5.728;2022-11-18T02:39:33;39.10;;;19.08;;
71622;SDS011;59473;53.214;5.728;2022-11-18T02:42:00;40.33;;;17.92;;
71622;SDS011;59473;53.214;5.728;2022-11-18T02:44:27;34.53;;;15.70;;
71622;SDS011;59473;53.214;5.728;2022-11-18T02:46:54;38.20;;;18.63;;
71622;SDS011;59473;53.214;5.728;2022-11-18T02:49:23;43.33;;;19.07;;
71622;SDS011;59473;53.214;5.728;2022-11-18T02:51:50;41.83;;;18.73;;
71622;SDS011;59473;53.214;5.728;2022-11-18T02:54:16;39.50;;;18.33;;
71622;SDS011;59473;53.214;5.728;2022-11-18T02:56:42;41.42;;;18.70;;
71622;SDS011;59473;53.214;5.728;2022-11-18T02:59:08;43.53;;;17.93;;
71622;SDS011;59473;53.214;5.728;2022-11-18T03:01:34;36.63;;;17.08;;
71622;SDS011;59473;53.214;5.728;2022-11-18T03:03:59;42.03;;;18.83;;
71622;SDS011;59473;53.214;5.728;2022-11-18T03:12:28;38.53;;;18.08;;
71622;SDS011;59473;53.214;5.728;2022-11-18T03:20:09;47.03;;;19.53;;
71622;SDS011;59473;53.214;5.728;2022-11-18T03:22:38;38.20;;;18.80;;
71622;SDS011;59473;53.214;5.728;2022-11-18T03:27:31;43.53;;;19.10;;
71622;SDS011;59473;53.214;5.728;2022-11-18T03:30:01;45.65;;;19.75;;
71622;SDS011;59473;53.214;5.728;2022-11-18T03:32:28;43.42;;;19.02;;
71622;SDS011;59473;53.214;5.728;2022-11-18T03:35:00;48.27;;;21.90;;
71622;SDS011;59473;53.214;5.728;2022-11-18T03:37:26;41.45;;;19.33;;
71622;SDS011;59473;53.214;5.728;2022-11-18T03:39:52;36.28;;;15.90;;
71622;SDS011;59473;53.214;5.728;2022-11-18T03:42:36;42.15;;;19.15;;
71622;SDS011;59473;53.214;5.728;2022-11-18T03:45:09;39.40;;;17.33;;
71622;SDS011;59473;53.214;5.728;2022-11-18T03:47:38;39.27;;;17.90;;
71622;SDS011;59473;53.214;5.728;2022-11-18T03:50:07;47.03;;;19.05;;
71622;SDS011;59473;53.214;5.728;2022-11-18T03:52:36;42.20;;;18.65;;
71622;SDS011;59473;53.214;5.728;2022-11-18T03:55:04;39.65;;;18.10;;
71622;SDS011;59473;53.214;5.728;2022-11-18T03:57:36;37.28;;;18.48;;
71622;SDS011;59473;53.214;5.728;2022-11-18T04:00:06;39.33;;;18.23;;
71622;SDS011;59473;53.214;5.728;2022-11-18T04:02:32;49.10;;;19.73;;
71622;SDS011;59473;53.214;5.728;2022-11-18T04:04:58;43.15;;;18.65;;
71622;SDS011;59473;53.214;5.728;2022-11-18T04:07:36;43.53;;;18.67;;
71622;SDS011;59473;53.214;5.728;2022-11-18T04:12:30;46.50;;;20.30;;
71622;SDS011;59473;53.214;5.728;2022-11-18T04:14:57;42.90;;;19.17;;
71622;SDS011;59473;53.214;5.728;2022-11-18T04:17:25;41.67;;;19.50;;
71622;SDS011;59473;53.214;5.728;2022-11-18T04:19:51;47.33;;;19.55;;
71622;SDS011;59473;53.214;5.728;2022-11-18T04:22:16;37.50;;;17.40;;
71622;SDS011;59473;53.214;5.728;2022-11-18T04:24:42;37.22;;;16.67;;
71622;SDS011;59473;53.214;5.728;2022-11-18T04:27:07;42.03;;;19.23;;
71622;SDS011;59473;53.214;5.728;2022-11-18T04:29:32;39.37;;;17.67;;
71622;SDS011;59473;53.214;5.728;2022-11-18T04:31:58;40.80;;;19.30;;
71622;SDS011;59473;53.214;5.728;2022-11-18T04:34:24;38.47;;;17.23;;
71622;SDS011;59473;53.214;5.728;2022-11-18T04:36:49;39.07;;;18.20;;
71622;SDS011;59473;53.214;5.728;2022-11-18T04:39:14;40.20;;;17.53;;
71622;SDS011;59473;53.214;5.728;2022-11-18T04:41:39;39.63;;;19.47;;
71622;SDS011;59473;53.214;5.728;2022-11-18T04:44:23;36.97;;;18.23;;
71622;SDS011;59473;53.214;5.728;2022-11-18T04:46:49;35.87;;;17.47;;
71622;SDS011;59473;53.214;5.728;2022-11-18T04:49:14;35.25;;;18.70;;
71622;SDS011;59473;53.214;5.728;2022-11-18T04:51:40;38.03;;;17.43;;
71622;SDS011;59473;53.214;5.728;2022-11-18T04:54:06;32.50;;;16.45;;
71622;SDS011;59473;53.214;5.728;2022-11-18T04:56:31;39.67;;;17.63;;
71622;SDS011;59473;53.214;5.728;2022-11-18T04:58:57;35.93;;;17.77;;
71622;SDS011;59473;53.214;5.728;2022-11-18T05:01:23;40.05;;;16.42;;
71622;SDS011;59473;53.214;5.728;2022-11-18T05:03:48;37.60;;;16.97;;
71622;SDS011;59473;53.214;5.728;2022-11-18T05:06:13;38.80;;;19.43;;
71622;SDS011;59473;53.214;5.728;2022-11-18T05:08:38;29.20;;;15.00;;
71622;SDS011;59473;53.214;5.728;2022-11-18T05:11:07;31.73;;;16.40;;
71622;SDS011;59473;53.214;5.728;2022-11-18T05:13:51;35.58;;;17.20;;
71622;SDS011;59473;53.214;5.728;2022-11-18T05:16:16;40.90;;;19.53;;
71622;SDS011;59473;53.214;5.728;2022-11-18T05:18:41;28.43;;;13.37;;
71622;SDS011;59473;53.214;5.728;2022-11-18T05:21:07;34.17;;;15.70;;
71622;SDS011;59473;53.214;5.728;2022-11-18T05:23:32;38.30;;;19.60;;
71622;SDS011;59473;53.214;5.728;2022-11-18T05:26:01;34.27;;;17.93;;
71622;SDS011;59473;53.214;5.728;2022-11-18T05:28:26;31.33;;;15.32;;
71622;SDS011;59473;53.214;5.728;2022-11-18T05:30:51;33.90;;;17.07;;
71622;SDS011;59473;53.214;5.728;2022-11-18T05:33:17;36.63;;;18.33;;
71622;SDS011;59473;53.214;5.728;2022-11-18T05:35:42;37.90;;;18.00;;
71622;SDS011;59473;53.214;5.728;2022-11-18T05:38:07;35.77;;;17.23;;
71622;SDS011;59473;53.214;5.728;2022-11-18T05:40:32;33.70;;;16.47;;
71622;SDS011;59473;53.214;5.728;2022-11-18T05:42:57;40.37;;;19.20;;
71622;SDS011;59473;53.214;5.728;2022-11-18T05:45:35;38.67;;;17.77;;
71622;SDS011;59473;53.214;5.728;2022-11-18T05:48:00;39.97;;;17.70;;
71622;SDS011;59473;53.214;5.728;2022-11-18T05:50:27;36.25;;;18.52;;
71622;SDS011;59473;53.214;5.728;2022-11-18T05:52:53;34.80;;;17.67;;
71622;SDS011;59473;53.214;5.728;2022-11-18T05:55:18;38.60;;;19.23;;
71622;SDS011;59473;53.214;5.728;2022-11-18T05:57:44;41.30;;;18.58;;
71622;SDS011;59473;53.214;5.728;2022-11-18T06:00:09;34.83;;;18.20;;
71622;SDS011;59473;53.214;5.728;2022-11-18T06:02:35;33.33;;;17.97;;
71622;SDS011;59473;53.214;5.728;2022-11-18T06:05:00;37.67;;;17.37;;
71622;SDS011;59473;53.214;5.728;2022-11-18T06:07:28;35.53;;;17.92;;
71622;SDS011;59473;53.214;5.728;2022-11-18T06:09:57;36.88;;;18.35;;
71622;SDS011;59473;53.214;5.728;2022-11-18T06:12:23;31.15;;;15.73;;
71622;SDS011;59473;53.214;5.728;2022-11-18T06:14:53;40.53;;;19.08;;
71622;SDS011;59473;53.214;5.728;2022-11-18T06:17:21;32.87;;;16.23;;
71622;SDS011;59473;53.214;5.728;2022-11-18T06:19:49;36.65;;;17.05;;
71622;SDS011;59473;53.214;5.728;2022-11-18T06:22:14;37.80;;;19.02;;
71622;SDS011;59473;53.214;5.728;2022-11-18T06:24:40;37.17;;;18.33;;
71622;SDS011;59473;53.214;5.728;2022-11-18T06:27:06;34.03;;;17.13;;
71622;SDS011;59473;53.214;5.728;2022-11-18T06:29:31;35.97;;;18.45;;
71622;SDS011;59473;53.214;5.728;2022-11-18T06:31:56;36.30;;;18.00;;
71622;SDS011;59473;53.214;5.728;2022-11-18T06:34:21;36.40;;;17.83;;
71622;SDS011;59473;53.214;5.728;2022-11-18T06:36:47;38.33;;;18.20;;
71622;SDS011;59473;53.214;5.728;2022-11-18T06:39:12;38.70;;;18.57;;
71622;SDS011;59473;53.214;5.728;2022-11-18T06:41:37;39.67;;;18.23;;
71622;SDS011;59473;53.214;5.728;2022-11-18T06:44:03;34.33;;;16.73;;
71622;SDS011;59473;53.214;5.728;2022-11-18T06:46:28;28.57;;;14.73;;
71622;SDS011;59473;53.214;5.728;2022-11-18T06:49:12;33.35;;;16.60;;
71622;SDS011;59473;53.214;5.728;2022-11-18T06:51:37;30.83;;;16.73;;
71622;SDS011;59473;53.214;5.728;2022-11-18T06:54:03;31.20;;;15.90;;
71622;SDS011;59473;53.214;5.728;2022-11-18T06:56:28;30.00;;;14.60;;
71622;SDS011;59473;53.214;5.728;2022-11-18T06:58:54;32.05;;;16.17;;
71622;SDS011;59473;53.214;5.728;2022-11-18T07:01:29;30.33;;;16.05;;
71622;SDS011;59473;53.214;5.728;2022-11-18T07:03:56;34.63;;;16.38;;
71622;SDS011;59473;53.214;5.728;2022-11-18T07:06:22;31.52;;;15.77;;
71622;SDS011;59473;53.214;5.728;2022-11-18T07:08:48;33.85;;;16.77;;
71622;SDS011;59473;53.214;5.728;2022-11-18T07:11:15;32.40;;;16.50;;
71622;SDS011;59473;53.214;5.728;2022-11-18T07:13:40;34.43;;;17.70;;
71622;SDS011;59473;53.214;5.728;2022-11-18T07:16:12;30.33;;;14.77;;
71622;SDS011;59473;53.214;5.728;2022-11-18T07:18:38;28.60;;;14.80;;
71622;SDS011;59473;53.214;5.728;2022-11-18T07:21:15;33.65;;;15.98;;
71622;SDS011;59473;53.214;5.728;2022-11-18T07:23:41;30.90;;;15.90;;
71622;SDS011;59473;53.214;5.728;2022-11-18T07:26:06;33.87;;;15.67;;
71622;SDS011;59473;53.214;5.728;2022-11-18T07:28:32;30.02;;;14.77;;
71622;SDS011;59473;53.214;5.728;2022-11-18T07:33:29;31.73;;;16.08;;
71622;SDS011;59473;53.214;5.728;2022-11-18T07:35:54;28.92;;;15.73;;
71622;SDS011;59473;53.214;5.728;2022-11-18T07:38:20;29.58;;;15.95;;
71622;SDS011;59473;53.214;5.728;2022-11-18T07:40:45;30.93;;;15.20;;
71622;SDS011;59473;53.214;5.728;2022-11-18T07:43:10;32.17;;;15.63;;
71622;SDS011;59473;53.214;5.728;2022-11-18T07:45:35;28.60;;;15.37;;
71622;SDS011;59473;53.214;5.728;2022-11-18T07:48:00;31.77;;;15.20;;
71622;SDS011;59473;53.214;5.728;2022-11-18T07:50:26;38.33;;;16.13;;
71622;SDS011;59473;53.214;5.728;2022-11-18T07:52:53;28.97;;;14.50;;
71622;SDS011;59473;53.214;5.728;2022-11-18T07:55:18;28.27;;;14.80;;
71622;SDS011;59473;53.214;5.728;2022-11-18T07:57:44;35.35;;;16.27;;
71622;SDS011;59473;53.214;5.728;2022-11-18T08:00:09;29.30;;;14.30;;
71622;SDS011;59473;53.214;5.728;2022-11-18T08:02:34;27.77;;;14.13;;
71622;SDS011;59473;53.214;5.728;2022-11-18T08:04:59;32.37;;;14.50;;
71622;SDS011;59473;53.214;5.728;2022-11-18T08:07:25;29.40;;;15.17;;
71622;SDS011;59473;53.214;5.728;2022-11-18T08:09:50;32.07;;;15.63;;
71622;SDS011;59473;53.214;5.728;2022-11-18T08:12:15;31.77;;;16.97;;
71622;SDS011;59473;53.214;5.728;2022-11-18T08:14:40;33.90;;;15.40;;
71622;SDS011;59473;53.214;5.728;2022-11-18T08:17:05;28.20;;;14.93;;
71622;SDS011;59473;53.214;5.728;2022-11-18T08:19:33;28.43;;;15.27;;
71622;SDS011;59473;53.214;5.728;2022-11-18T08:21:58;37.77;;;16.90;;
71622;SDS011;59473;53.214;5.728;2022-11-18T08:24:23;30.87;;;15.80;;
71622;SDS011;59473;53.214;5.728;2022-11-18T08:26:48;32.67;;;15.30;;
71622;SDS011;59473;53.214;5.728;2022-11-18T08:29:13;32.73;;;14.97;;
71622;SDS011;59473;53.214;5.728;2022-11-18T08:31:39;30.17;;;13.73;;
71622;SDS011;59473;53.214;5.728;2022-11-18T08:34:04;29.52;;;14.77;;
71622;SDS011;59473;53.214;5.728;2022-11-18T08:36:31;31.23;;;15.17;;
71622;SDS011;59473;53.214;5.728;2022-11-18T08:38:57;32.10;;;14.60;;
71622;SDS011;59473;53.214;5.728;2022-11-18T08:41:36;29.63;;;13.32;;
71622;SDS011;59473;53.214;5.728;2022-11-18T08:44:04;30.13;;;14.57;;
71622;SDS011;59473;53.214;5.728;2022-11-18T08:46:29;35.03;;;16.27;;
71622;SDS011;59473;53.214;5.728;2022-11-18T08:48:55;35.20;;;15.07;;
71622;SDS011;59473;53.214;5.728;2022-11-18T08:51:20;33.60;;;15.43;;
71622;SDS011;59473;53.214;5.728;2022-11-18T08:53:46;27.87;;;13.23;;
71622;SDS011;59473;53.214;5.728;2022-11-18T08:56:11;32.83;;;15.07;;
71622;SDS011;59473;53.214;5.728;2022-11-18T08:58:38;31.20;;;14.63;;
71622;SDS011;59473;53.214;5.728;2022-11-18T09:01:04;27.80;;;13.00;;
71622;SDS011;59473;53.214;5.728;2022-11-18T09:03:30;24.73;;;11.45;;
71622;SDS011;59473;53.214;5.728;2022-11-18T09:06:03;29.07;;;14.53;;
71622;SDS011;59473;53.214;5.728;2022-11-18T09:08:29;39.40;;;14.68;;
71622;SDS011;59473;53.214;5.728;2022-11-18T09:10:54;29.40;;;14.20;;
71622;SDS011;59473;53.214;5.728;2022-11-18T09:13:19;21.83;;;11.50;;
71622;SDS011;59473;53.214;5.728;2022-11-18T09:15:44;40.43;;;15.30;;
71622;SDS011;59473;53.214;5.728;2022-11-18T09:18:09;31.67;;;13.83;;
71622;SDS011;59473;53.214;5.728;2022-11-18T09:20:35;33.40;;;13.33;;
71622;SDS011;59473;53.214;5.728;2022-11-18T09:23:00;31.60;;;14.00;;
71622;SDS011;59473;53.214;5.728;2022-11-18T09:25:25;26.33;;;12.50;;
71622;SDS011;59473;53.214;5.728;2022-11-18T09:27:50;25.00;;;11.57;;
71622;SDS011;59473;53.214;5.728;2022-11-18T09:30:16;26.67;;;12.87;;
71622;SDS011;59473;53.214;5.728;2022-11-18T09:32:41;30.75;;;13.88;;
71622;SDS011;59473;53.214;5.728;2022-11-18T09:35:07;32.85;;;13.02;;
71622;SDS011;59473;53.214;5.728;2022-11-18T09:37:32;26.70;;;13.60;;
71622;SDS011;59473;53.214;5.728;2022-11-18T09:39:58;26.13;;;11.73;;
71622;SDS011;59473;53.214;5.728;2022-11-18T09:42:44;24.53;;;11.67;;
71622;SDS011;59473;53.214;5.728;2022-11-18T09:47:58;27.73;;;11.93;;
71622;SDS011;59473;53.214;5.728;2022-11-18T09:50:24;29.48;;;14.20;;
71622;SDS011;59473;53.214;5.728;2022-11-18T09:55:29;36.40;;;13.80;;
71622;SDS011;59473;53.214;5.728;2022-11-18T09:57:55;25.85;;;12.38;;
71622;SDS011;59473;53.214;5.728;2022-11-18T10:00:23;25.15;;;10.75;;
71622;SDS011;59473;53.214;5.728;2022-11-18T10:05:15;23.90;;;10.93;;
71622;SDS011;59473;53.214;5.728;2022-11-18T10:07:43;24.63;;;10.85;;
71622;SDS011;59473;53.214;5.728;2022-11-18T10:10:13;23.70;;;9.60;;
71622;SDS011;59473;53.214;5.728;2022-11-18T10:23:30;25.50;;;11.55;;
71622;SDS011;59473;53.214;5.728;2022-11-18T10:25:57;20.67;;;10.20;;
71622;SDS011;59473;53.214;5.728;2022-11-18T10:28:27;23.20;;;11.60;;
71622;SDS011;59473;53.214;5.728;2022-11-18T10:31:09;27.08;;;11.27;;
71622;SDS011;59473;53.214;5.728;2022-11-18T10:33:35;21.40;;;10.13;;
71622;SDS011;59473;53.214;5.728;2022-11-18T10:36:07;26.33;;;10.43;;
71622;SDS011;59473;53.214;5.728;2022-11-18T10:38:33;23.70;;;11.07;;
71622;SDS011;59473;53.214;5.728;2022-11-18T10:40:59;23.50;;;11.13;;
71622;SDS011;59473;53.214;5.728;2022-11-18T10:43:44;18.50;;;9.93;;
71622;SDS011;59473;53.214;5.728;2022-11-18T10:46:29;19.33;;;10.45;;
71622;SDS011;59473;53.214;5.728;2022-11-18T10:51:33;19.55;;;9.90;;
71622;SDS011;59473;53.214;5.728;2022-11-18T10:54:10;21.52;;;9.88;;
71622;SDS011;59473;53.214;5.728;2022-11-18T10:59:11;19.73;;;10.10;;
71622;SDS011;59473;53.214;5.728;2022-11-18T11:01:41;18.25;;;9.88;;
71622;SDS011;59473;53.214;5.728;2022-11-18T11:06:35;20.50;;;10.68;;
71622;SDS011;59473;53.214;5.728;2022-11-18T11:11:54;21.00;;;9.90;;
71622;SDS011;59473;53.214;5.728;2022-11-18T11:16:50;19.33;;;10.48;;
71622;SDS011;59473;53.214;5.728;2022-11-18T11:19:17;19.48;;;9.50;;
71622;SDS011;59473;53.214;5.728;2022-11-18T11:21:44;19.95;;;9.30;;
71622;SDS011;59473;53.214;5.728;2022-11-18T11:24:10;20.23;;;10.40;;
71622;SDS011;59473;53.214;5.728;2022-11-18T11:26:53;17.93;;;9.23;;
71622;SDS011;59473;53.214;5.728;2022-11-18T11:37:26;19.73;;;9.88;;
71622;SDS011;59473;53.214;5.728;2022-11-18T11:50:11;18.45;;;8.93;;
71622;SDS011;59473;53.214;5.728;2022-11-18T11:52:41;17.17;;;9.60;;
71622;SDS011;59473;53.214;5.728;2022-11-18T11:55:14;17.07;;;8.43;;
71622;SDS011;59473;53.214;5.728;2022-11-18T11:57:46;19.48;;;10.30;;
71622;SDS011;59473;53.214;5.728;2022-11-18T12:00:15;15.32;;;8.95;;
71622;SDS011;59473;53.214;5.728;2022-11-18T12:05:42;17.35;;;8.85;;
71622;SDS011;59473;53.214;5.728;2022-11-18T12:08:14;18.50;;;9.03;;
71622;SDS011;59473;53.214;5.728;2022-11-18T12:18:23;15.80;;;8.27;;
71622;SDS011;59473;53.214;5.728;2022-11-18T12:20:51;16.98;;;9.55;;
71622;SDS011;59473;53.214;5.728;2022-11-18T12:23:17;17.55;;;7.72;;
71622;SDS011;59473;53.214;5.728;2022-11-18T12:25:55;15.85;;;8.77;;
71622;SDS011;59473;53.214;5.728;2022-11-18T12:28:34;14.97;;;7.37;;
71622;SDS011;59473;53.214;5.728;2022-11-18T12:31:33;17.77;;;8.48;;
71622;SDS011;59473;53.214;5.728;2022-11-18T12:34:02;15.88;;;7.85;;
71622;SDS011;59473;53.214;5.728;2022-11-18T12:38:53;12.77;;;7.13;;
71622;SDS011;59473;53.214;5.728;2022-11-18T12:44:37;16.20;;;8.32;;
71622;SDS011;59473;53.214;5.728;2022-11-18T12:47:07;15.45;;;8.40;;
71622;SDS011;59473;53.214;5.728;2022-11-18T12:52:01;16.70;;;8.30;;
71622;SDS011;59473;53.214;5.728;2022-11-18T12:56:52;14.40;;;7.57;;
71622;SDS011;59473;53.214;5.728;2022-11-18T12:59:35;16.33;;;8.40;;
71622;SDS011;59473;53.214;5.728;2022-11-18T13:02:05;17.65;;;10.18;;
71622;SDS011;59473;53.214;5.728;2022-11-18T13:04:38;20.17;;;9.23;;
71622;SDS011;59473;53.214;5.728;2022-11-18T13:07:04;18.80;;;9.53;;
71622;SDS011;59473;53.214;5.728;2022-11-18T13:09:51;13.77;;;7.43;;
71622;SDS011;59473;53.214;5.728;2022-11-18T13:12:16;17.65;;;9.27;;
71622;SDS011;59473;53.214;5.728;2022-11-18T13:14:42;19.57;;;9.67;;
71622;SDS011;59473;53.214;5.728;2022-11-18T13:20:52;19.52;;;9.68;;
71622;SDS011;59473;53.214;5.728;2022-11-18T13:25:53;15.52;;;7.93;;
71622;SDS011;59473;53.214;5.728;2022-11-18T13:30:47;19.33;;;9.37;;
71622;SDS011;59473;53.214;5.728;2022-11-18T13:33:14;19.52;;;9.25;;
71622;SDS011;59473;53.214;5.728;2022-11-18T13:35:39;17.10;;;8.87;;
71622;SDS011;59473;53.214;5.728;2022-11-18T13:38:04;19.53;;;10.70;;
71622;SDS011;59473;53.214;5.728;2022-11-18T13:40:38;20.05;;;9.35;;
71622;SDS011;59473;53.214;5.728;2022-11-18T13:43:03;19.23;;;8.35;;
71622;SDS011;59473;53.214;5.728;2022-11-18T13:45:29;22.57;;;9.03;;
71622;SDS011;59473;53.214;5.728;2022-11-18T13:47:57;16.00;;;7.70;;
71622;SDS011;59473;53.214;5.728;2022-11-18T13:50:36;18.70;;;8.53;;
71622;SDS011;59473;53.214;5.728;2022-11-18T13:53:04;15.95;;;7.60;;
71622;SDS011;59473;53.214;5.728;2022-11-18T13:56:32;18.60;;;10.25;;
71622;SDS011;59473;53.214;5.728;2022-11-18T13:58:39;18.13;;;9.02;;
71622;SDS011;59473;53.214;5.728;2022-11-18T14:01:10;22.15;;;10.45;;
71622;SDS011;59473;53.214;5.728;2022-11-18T14:06:03;19.27;;;10.25;;
71622;SDS011;59473;53.214;5.728;2022-11-18T14:08:33;20.33;;;10.07;;
71622;SDS011;59473;53.214;5.728;2022-11-18T14:10:58;19.23;;;8.83;;
71622;SDS011;59473;53.214;5.728;2022-11-18T14:15:50;19.40;;;8.83;;
71622;SDS011;59473;53.214;5.728;2022-11-18T14:18:18;20.80;;;9.43;;
71622;SDS011;59473;53.214;5.728;2022-11-18T14:20:48;18.67;;;9.40;;
71622;SDS011;59473;53.214;5.728;2022-11-18T14:23:14;19.33;;;9.20;;
71622;SDS011;59473;53.214;5.728;2022-11-18T14:25:41;22.42;;;9.23;;
71622;SDS011;59473;53.214;5.728;2022-11-18T14:30:58;16.88;;;9.00;;
71622;SDS011;59473;53.214;5.728;2022-11-18T14:33:24;18.67;;;8.35;;
71622;SDS011;59473;53.214;5.728;2022-11-18T14:36:13;18.00;;;9.73;;
71622;SDS011;59473;53.214;5.728;2022-11-18T14:41:06;16.55;;;7.53;;
71622;SDS011;59473;53.214;5.728;2022-11-18T14:43:32;17.40;;;7.93;;
71622;SDS011;59473;53.214;5.728;2022-11-18T14:46:11;23.60;;;9.50;;
71622;SDS011;59473;53.214;5.728;2022-11-18T14:48:38;13.15;;;6.55;;
71622;SDS011;59473;53.214;5.728;2022-11-18T14:51:03;21.93;;;10.50;;
71622;SDS011;59473;53.214;5.728;2022-11-18T14:53:28;18.10;;;8.77;;
71622;SDS011;59473;53.214;5.728;2022-11-18T14:55:55;20.17;;;9.50;;
71622;SDS011;59473;53.214;5.728;2022-11-18T14:58:20;16.80;;;8.85;;
71622;SDS011;59473;53.214;5.728;2022-11-18T15:00:46;21.30;;;9.37;;
71622;SDS011;59473;53.214;5.728;2022-11-18T15:03:12;16.48;;;8.48;;
71622;SDS011;59473;53.214;5.728;2022-11-18T15:05:37;20.80;;;10.00;;
71622;SDS011;59473;53.214;5.728;2022-11-18T15:08:02;19.33;;;9.73;;
71622;SDS011;59473;53.214;5.728;2022-11-18T15:10:28;24.10;;;11.20;;
71622;SDS011;59473;53.214;5.728;2022-11-18T15:12:53;21.93;;;10.93;;
71622;SDS011;59473;53.214;5.728;2022-11-18T15:15:18;21.53;;;10.83;;
71622;SDS011;59473;53.214;5.728;2022-11-18T15:17:44;19.87;;;9.67;;
71622;SDS011;59473;53.214;5.728;2022-11-18T15:20:10;19.60;;;10.03;;
71622;SDS011;59473;53.214;5.728;2022-11-18T15:22:36;20.20;;;10.85;;
71622;SDS011;59473;53.214;5.728;2022-11-18T15:25:02;21.50;;;10.50;;
71622;SDS011;59473;53.214;5.728;2022-11-18T15:27:28;21.95;;;10.60;;
71622;SDS011;59473;53.214;5.728;2022-11-18T15:29:53;18.53;;;9.67;;
71622;SDS011;59473;53.214;5.728;2022-11-18T15:32:18;21.20;;;11.20;;
71622;SDS011;59473;53.214;5.728;2022-11-18T15:34:44;20.30;;;11.67;;
71622;SDS011;59473;53.214;5.728;2022-11-18T15:37:10;23.33;;;12.00;;
71622;SDS011;59473;53.214;5.728;2022-11-18T15:39:35;27.75;;;11.27;;
71622;SDS011;59473;53.214;5.728;2022-11-18T15:42:01;20.53;;;10.67;;
71622;SDS011;59473;53.214;5.728;2022-11-18T15:44:26;19.03;;;9.90;;
71622;SDS011;59473;53.214;5.728;2022-11-18T15:46:51;19.40;;;10.10;;
71622;SDS011;59473;53.214;5.728;2022-11-18T15:49:16;22.83;;;10.93;;
71622;SDS011;59473;53.214;5.728;2022-11-18T15:51:42;23.17;;;12.00;;
71622;SDS011;59473;53.214;5.728;2022-11-18T15:54:07;26.73;;;12.70;;
71622;SDS011;59473;53.214;5.728;2022-11-18T15:56:32;26.17;;;12.13;;
71622;SDS011;59473;53.214;5.728;2022-11-18T15:59:02;26.67;;;12.53;;
71622;SDS011;59473;53.214;5.728;2022-11-18T16:01:29;26.17;;;12.95;;
71622;SDS011;59473;53.214;5.728;2022-11-18T16:03:54;25.80;;;13.07;;
71622;SDS011;59473;53.214;5.728;2022-11-18T16:06:20;27.23;;;13.00;;
71622;SDS011;59473;53.214;5.728;2022-11-18T16:08:45;29.93;;;13.63;;
71622;SDS011;59473;53.214;5.728;2022-11-18T16:11:12;25.48;;;13.20;;
71622;SDS011;59473;53.214;5.728;2022-11-18T16:13:59;22.20;;;11.82;;
71622;SDS011;59473;53.214;5.728;2022-11-18T16:16:25;25.02;;;11.82;;
71622;SDS011;59473;53.214;5.728;2022-11-18T16:18:55;23.17;;;11.48;;
71622;SDS011;59473;53.214;5.728;2022-11-18T16:21:21;22.38;;;11.60;;
71622;SDS011;59473;53.214;5.728;2022-11-18T16:23:46;21.97;;;11.40;;
71622;SDS011;59473;53.214;5.728;2022-11-18T16:26:11;23.60;;;11.17;;